Latest Weather Observations for New May Downs

IDQ60801

Issued at 6:32 pm EST Tuesday 25 April 2017 (issued every 30 minutes, with the page automatically refreshed every 10 minutes)

About weather observations | Map of weather stations | Latest weather observations for QLD | Other Formats
Station Details ID: 037059 Name: NEW MAY DOWNS Lat: -20.59 Lon: 139.34 Height: 392.0 m
Data from the previous 72 hours. | See also: Recent months at New May Downs
Date/Time
EST
Temp
°C
App
Temp
°C
Dew
Point
°C
Rel
Hum
%
Delta-T
°C
Wind Press
QNH
hPa
Press
MSL
hPa
Rain since
9am
mm
Dir  Spd
km/h
Gust
km/h
Spd
kts
Gust
kts
25/06:30pm 30.8 29.8 10.2 28 11.9 NNE 6 9 3 5 - - 0.0
25/06:00pm 31.9 30.5 9.4 25 12.9 NNE 7 13 4 7 - - 0.0
25/05:30pm 32.8 31.6 9.6 24 13.4 N 6 9 3 5 - - 0.0
25/05:00pm 33.2 31.7 9.3 23 13.8 NNE 7 11 4 6 - - 0.0
25/04:30pm 33.7 32.2 9.0 22 14.2 NNW 7 17 4 9 - - 0.0
25/04:00pm 33.8 32.9 9.1 22 14.2 W 4 11 2 6 - - 0.0
25/03:30pm 33.7 32.5 9.7 23 14.0 NNE 6 11 3 6 - - 0.0
25/03:00pm 33.1 31.8 9.2 23 13.8 NW 6 7 3 4 - - 0.0
25/02:30pm 33.6 31.8 9.6 23 13.9 NW 9 17 5 9 - - 0.0
25/02:00pm 32.9 31.2 9.7 24 13.4 NNE 9 17 5 9 - - 0.0
25/01:30pm 34.1 33.0 10.0 23 14.1 NNE 6 13 3 7 - - 0.0
25/01:00pm 32.3 29.7 9.2 24 13.3 N 13 20 7 11 - - 0.0
25/12:30pm 32.3 30.1 9.2 24 13.3 NNE 11 15 6 8 - - 0.0
25/12:00pm 32.4 30.3 9.9 25 13.1 NNE 11 17 6 9 - - 0.0
25/11:30am 32.1 30.0 9.6 25 13.0 NE 11 19 6 10 - - 0.0
25/11:00am 31.8 30.3 10.5 27 12.4 NNE 9 17 5 9 - - 0.0
25/10:30am 30.6 29.3 10.0 28 11.9 NE 7 13 4 7 - - 0.0
25/10:00am 29.5 27.9 10.1 30 11.1 NE 9 13 5 7 - - 0.0
25/09:30am 28.4 26.0 10.1 32 10.5 ENE 13 19 7 10 - - 0.0
25/09:00am 27.1 25.7 10.8 36 9.4 NE 9 13 5 7 - - 0.0
25/08:30am 25.1 25.0 10.9 41 8.1 NE 2 4 1 2 - - 0.0
25/08:00am 23.5 23.9 11.2 46 7.0 CALM 0 0 0 0 - - 0.0
25/07:30am 20.5 20.3 10.6 53 5.5 SE 2 4 1 2 - - 0.0
25/07:00am 19.4 18.7 9.9 54 5.2 ESE 4 6 2 3 - - 0.0
25/06:30am 21.1 21.0 10.9 52 5.7 NE 2 2 1 1 - - 0.0
25/06:00am 21.4 20.6 10.9 51 5.9 NE 6 7 3 4 - - 0.0
25/05:30am 21.6 21.9 11.0 51 6.0 CALM 0 6 0 3 - - 0.0
25/05:00am 20.9 20.8 10.7 52 5.7 SE 2 4 1 2 - - 0.0
25/04:30am 21.0 21.2 10.5 51 5.8 CALM 0 2 0 1 - - 0.0
25/04:00am 21.2 20.7 10.7 51 5.9 ENE 4 6 2 3 - - 0.0
25/03:30am 20.4 20.9 11.6 57 5.0 CALM 0 0 0 0 - - 0.0
25/03:00am 20.7 21.1 11.3 55 5.3 CALM 0 0 0 0 - - 0.0
25/02:30am 21.5 22.0 11.5 53 5.7 CALM 0 0 0 0 - - 0.0
25/02:00am 21.6 21.9 11.0 51 6.0 CALM 0 0 0 0 - - 0.0
25/01:30am 22.0 22.4 11.1 50 6.1 CALM 0 0 0 0 - - 0.0
25/01:00am 21.9 21.8 10.7 49 6.3 ENE 2 4 1 2 - - 0.0
25/12:30am 21.9 21.8 9.4 45 6.8 CALM 0 0 0 0 - - 0.0
25/12:00am 24.5 24.5 11.1 43 7.6 N 2 2 1 1 - - 0.0
 
Date/Time
EST
Temp
°C
App
Temp
°C
Dew
Point
°C
Rel
Hum
%
Delta-T
°C
Wind Press
QNH
hPa
Press
MSL
hPa
Rain since
9am
mm
Dir  Spd
km/h
Gust
km/h
Spd
kts
Gust
kts
24/11:30pm 24.4 24.0 11.0 43 7.6 N 4 6 2 3 - - 0.0
24/11:00pm 25.4 24.6 11.2 41 8.2 N 6 6 3 3 - - 0.0
24/10:30pm 25.7 24.7 11.1 40 8.4 NNE 7 7 4 4 - - 0.0
24/10:00pm 25.5 25.0 10.9 40 8.3 N 4 6 2 3 - - 0.0
24/09:30pm 25.8 25.2 10.4 38 8.7 NNE 4 4 2 2 - - 0.0
24/09:00pm 26.8 26.2 10.5 36 9.3 NE 4 6 2 3 - - 0.0
24/08:30pm 27.3 26.4 10.5 35 9.6 NNE 6 7 3 4 - - 0.0
24/08:00pm 27.4 26.4 10.2 34 9.8 ENE 6 6 3 3 - - 0.0
24/07:30pm 28.0 27.0 10.2 33 10.2 ENE 6 7 3 4 - - 0.0
24/07:00pm 28.9 27.8 10.1 31 10.8 ENE 6 7 3 4 - - 0.0
24/06:30pm 30.0 28.3 10.0 29 11.5 ENE 9 13 5 7 - - 0.0
24/06:00pm 31.0 28.9 9.8 27 12.2 ENE 11 17 6 9 - - 0.0
24/05:30pm 31.8 29.6 9.3 25 12.9 E 11 17 6 9 - - 0.0
24/05:00pm 32.1 30.2 9.0 24 13.2 E 9 15 5 8 - - 0.0
24/04:30pm 32.9 31.9 10.3 25 13.2 ESE 6 11 3 6 - - 0.0
24/04:00pm 32.5 31.0 10.5 26 12.9 NE 9 15 5 8 - - 0.0
24/03:30pm 32.7 31.2 10.7 26 12.9 NE 9 20 5 11 - - 0.0
24/03:00pm 32.1 30.1 10.2 26 12.7 E 11 17 6 9 - - 0.0
24/02:30pm 32.3 30.1 10.9 27 12.6 NE 13 28 7 15 - - 0.0
24/02:00pm 32.2 29.8 11.4 28 12.3 ENE 15 20 8 11 - - 0.0
24/01:30pm 31.7 28.6 11.5 29 12.0 E 19 28 10 15 - - 0.0
24/01:00pm 31.4 28.2 11.2 29 11.9 E 19 28 10 15 - - 0.0
24/12:30pm 30.9 28.0 12.3 32 11.1 NE 19 26 10 14 - - 0.0
24/12:00pm 31.0 28.5 12.4 32 11.2 ENE 17 28 9 15 - - 0.0
24/11:30am 29.6 26.9 12.9 35 10.0 NE 19 30 10 16 - - 0.0
24/11:00am 28.6 25.9 12.9 38 9.4 NE 19 28 10 15 - - 0.0
24/10:30am 28.2 25.6 13.7 41 8.8 NE 20 32 11 17 - - 0.0
24/10:00am 27.4 24.6 14.4 45 7.9 NE 22 32 12 17 - - 0.0
24/09:30am 26.8 23.6 14.2 46 7.6 ENE 24 35 13 19 - - 0.0
24/09:00am 25.8 23.0 13.3 46 7.4 ENE 20 30 11 16 - - 0.0
24/08:30am 24.8 22.3 12.4 46 7.2 E 17 28 9 15 - - 0.0
24/08:00am 24.2 21.6 11.9 46 7.1 E 17 24 9 13 - - 0.0
24/07:30am 22.1 21.0 9.9 46 6.7 E 6 9 3 5 - - 0.0
24/07:00am 21.3 19.9 9.5 47 6.4 E 7 9 4 5 - - 0.0
24/06:30am 21.3 19.1 9.5 47 6.4 ESE 11 13 6 7 - - 0.0
24/06:00am 21.0 19.2 9.3 47 6.4 ESE 9 11 5 6 - - 0.0
24/05:30am 21.0 19.4 8.9 46 6.5 ESE 7 9 4 5 - - 0.0
24/05:00am 21.4 19.6 9.3 46 6.6 ESE 9 9 5 5 - - 0.0
24/04:30am 21.5 20.6 9.1 45 6.7 SE 4 6 2 3 - - 0.0
24/04:00am 22.9 21.4 9.3 42 7.5 ESE 7 9 4 5 - - 0.0
24/03:30am 22.7 21.3 9.5 43 7.3 E 7 9 4 5 - - 0.0
24/03:00am 23.1 21.7 9.5 42 7.5 E 7 9 4 5 - - 0.0
24/02:30am 23.3 21.6 9.7 42 7.5 E 9 11 5 6 - - 0.0
24/02:00am 22.6 20.9 9.7 44 7.1 ESE 9 9 5 5 - - 0.0
24/01:30am 22.6 21.3 10.1 45 6.9 ESE 7 9 4 5 - - 0.0
24/01:00am 23.5 21.9 10.2 43 7.4 SE 9 9 5 5 - - 0.0
24/12:30am 24.1 22.9 10.4 42 7.7 E 7 11 4 6 - - 0.0
24/12:00am 24.7 23.6 10.6 41 8.0 E 7 9 4 5 - - 0.0
 
Date/Time
EST
Temp
°C
App
Temp
°C
Dew
Point
°C
Rel
Hum
%
Delta-T
°C
Wind Press
QNH
hPa
Press
MSL
hPa
Rain since
9am
mm
Dir  Spd
km/h
Gust
km/h
Spd
kts
Gust
kts
23/11:30pm 24.8 23.9 10.7 41 8.0 E 6 7 3 4 - - 0.0
23/11:00pm 25.1 24.2 10.6 40 8.2 E 6 7 3 4 - - 0.0
23/10:30pm 25.6 24.5 10.6 39 8.5 E 7 7 4 4 - - 0.0
23/10:00pm 26.1 24.9 10.3 37 9.0 E 7 9 4 5 - - 0.0
23/09:30pm 26.6 25.0 10.3 36 9.3 E 9 11 5 6 - - 0.0
23/09:00pm 27.2 25.7 10.4 35 9.6 E 9 11 5 6 - - 0.0
23/08:30pm 27.4 25.9 10.6 35 9.6 E 9 11 5 6 - - 0.0
23/08:00pm 27.8 26.3 10.5 34 9.9 E 9 9 5 5 - - 0.0
23/07:30pm 28.3 27.2 10.5 33 10.2 E 7 9 4 5 - - 0.0
23/07:00pm 28.8 27.9 10.5 32 10.5 E 6 7 3 4 - - 0.0
23/06:30pm 29.9 28.5 10.9 31 11.1 E 9 13 5 7 - - 0.0
23/06:00pm 30.8 28.6 10.7 29 11.7 E 13 19 7 10 - - 0.0
23/05:30pm 31.7 29.2 9.8 26 12.6 ESE 13 22 7 12 - - 0.0
23/05:00pm 31.7 30.7 11.0 28 12.2 ESE 7 20 4 11 - - 0.0
23/04:30pm 32.4 30.6 11.0 27 12.6 ESE 11 24 6 13 - - 0.0
23/04:00pm 32.2 29.6 10.8 27 12.6 SE 15 24 8 13 - - 0.0
23/03:30pm 31.9 29.1 10.0 26 12.7 E 15 28 8 15 - - 0.0
23/03:00pm 31.3 28.4 11.1 29 11.9 ESE 17 24 9 13 - - 0.0
23/02:30pm 31.9 29.6 11.7 29 12.0 E 15 24 8 13 - - 0.0
23/02:00pm 31.7 29.1 12.0 30 11.8 E 17 32 9 17 - - 0.0
23/01:30pm 31.3 29.1 12.2 31 11.4 E 15 28 8 15 - - 0.0
23/01:00pm 31.0 29.0 12.8 32 11.0 E 15 26 8 14 - - 0.0
23/12:30pm 30.4 28.9 13.2 35 10.4 NE 13 24 7 13 - - 0.0
23/12:00pm 30.3 29.0 13.6 36 10.2 ENE 13 20 7 11 - - 0.0
23/11:30am 29.5 27.7 13.3 37 9.8 NE 15 20 8 11 - - 0.0
23/11:00am 29.1 27.2 14.1 40 9.2 ENE 17 28 9 15 - - 0.0
23/10:30am 28.4 26.1 14.6 43 8.5 ENE 20 30 11 16 - - 0.0
23/10:00am 27.0 24.3 14.7 47 7.5 NE 22 30 12 16 - - 0.0
23/09:30am 26.5 24.2 14.6 48 7.3 ENE 20 30 11 16 - - 0.0
23/09:00am 26.0 23.8 14.5 49 7.0 ENE 19 28 10 15 - - 0.0
23/08:30am 24.9 23.1 14.4 52 6.3 ENE 17 24 9 13 - - 0.0
23/08:00am 24.1 22.3 14.5 55 5.8 ENE 17 24 9 13 - - 0.0
23/07:30am 23.2 22.6 14.5 58 5.2 ENE 11 19 6 10 - - 0.0
23/07:00am 22.5 21.6 13.6 57 5.3 ENE 11 15 6 8 - - 0.0
23/06:30am 22.9 21.2 12.5 52 6.0 ENE 13 24 7 13 - - 0.0
23/06:00am 23.2 20.9 11.6 48 6.6 E 15 20 8 11 - - 0.0
23/05:30am 23.6 21.3 11.6 47 6.9 E 15 22 8 12 - - 0.0
23/05:00am 23.0 21.6 10.8 46 6.9 E 9 13 5 7 - - 0.0
23/04:30am 23.5 22.1 10.9 45 7.1 E 9 13 5 7 - - 0.0
23/04:00am 23.8 22.0 10.8 44 7.4 E 11 13 6 7 - - 0.0
23/03:30am 23.9 22.5 10.9 44 7.4 E 9 13 5 7 - - 0.0
23/03:00am 23.5 22.2 11.2 46 7.0 ESE 9 13 5 7 - - 0.0
23/02:30am 23.8 22.5 11.2 45 7.2 ESE 9 11 5 6 - - 0.0
23/02:00am 23.8 22.9 11.5 46 7.0 ESE 7 9 4 5 - - 0.0
23/01:30am 24.6 23.7 11.5 44 7.5 ESE 7 9 4 5 - - 0.0
23/01:00am 25.1 24.0 12.0 44 7.6 E 9 11 5 6 - - 0.0
23/12:30am 25.1 24.0 12.0 44 7.6 E 9 11 5 6 - - 0.0
23/12:00am 25.0 24.5 12.2 44 7.5 E 6 9 3 5 - - 0.0
 
Date/Time
EST
Temp
°C
App
Temp
°C
Dew
Point
°C
Rel
Hum
%
Delta-T
°C
Wind Press
QNH
hPa
Press
MSL
hPa
Rain since
9am
mm
Dir  Spd
km/h
Gust
km/h
Spd
kts
Gust
kts
22/11:30pm 25.5 25.2 12.7 45 7.5 E 6 7 3 4 - - 0.0
22/11:00pm 25.7 25.2 12.5 44 7.8 E 7 9 4 5 - - 0.0
22/10:30pm 26.1 25.6 12.5 42 8.0 E 7 9 4 5 - - 0.0
22/10:00pm 26.4 25.7 12.1 41 8.4 E 7 9 4 5 - - 0.0
22/09:30pm 27.0 26.0 12.3 40 8.7 E 9 13 5 7 - - 0.0
22/09:00pm 27.1 26.0 12.0 39 8.9 E 9 11 5 6 - - 0.0
22/08:30pm 27.2 26.0 11.7 38 9.0 E 9 11 5 6 - - 0.0
22/08:00pm 27.5 26.5 11.1 36 9.5 ENE 7 9 4 5 - - 0.0
22/07:30pm 28.3 27.3 10.9 34 10.1 E 7 7 4 4 - - 0.0
22/07:00pm 28.9 27.9 11.0 33 10.4 E 7 9 4 5 - - 0.0

Other Formats:

Comma delimited format used in spreadsheet applications
http://www.bom.gov.au/fwo/IDQ60801/IDQ60801.94349.axf

JavaScript Object Notation format (JSON) in row-major order
http://www.bom.gov.au/fwo/IDQ60801/IDQ60801.94349.json